createdAt,value
2022-12-27T00:01:12.368Z,100.00
2022-12-27T00:03:41.249Z,100.00
2022-12-27T00:06:11.183Z,100.00
2022-12-27T00:08:39.146Z,100.00
2022-12-27T00:11:09.263Z,100.00
2022-12-27T00:13:38.645Z,100.00
2022-12-27T00:16:08.648Z,100.00
2022-12-27T00:18:37.323Z,100.00
2022-12-27T00:21:06.508Z,100.00
2022-12-27T00:23:37.429Z,100.00
2022-12-27T00:26:07.897Z,100.00
2022-12-27T00:28:36.441Z,100.00
2022-12-27T00:31:06.596Z,100.00
2022-12-27T00:33:36.502Z,100.00
2022-12-27T00:36:07.038Z,100.00
2022-12-27T00:38:35.967Z,100.00
2022-12-27T00:41:04.650Z,100.00
2022-12-27T00:43:32.672Z,100.00
2022-12-27T00:46:00.693Z,100.00
2022-12-27T00:48:30.199Z,100.00
2022-12-27T00:51:03.444Z,100.00
2022-12-27T00:53:32.181Z,100.00
2022-12-27T00:56:00.601Z,100.00
2022-12-27T00:58:28.648Z,100.00
2022-12-27T01:00:56.624Z,100.00
2022-12-27T01:03:24.566Z,100.00
2022-12-27T01:05:53.874Z,100.00
2022-12-27T01:08:22.869Z,100.00
2022-12-27T01:10:51.646Z,100.00
2022-12-27T01:13:19.603Z,100.00
2022-12-27T01:15:47.521Z,100.00
2022-12-27T01:18:15.429Z,100.00
2022-12-27T01:20:43.371Z,99.73
2022-12-27T01:23:12.704Z,99.63
2022-12-27T01:25:40.759Z,100.00
2022-12-27T01:28:08.731Z,100.00
2022-12-27T01:30:36.755Z,100.00
2022-12-27T01:33:04.707Z,100.00
2022-12-27T01:35:32.623Z,100.00
2022-12-27T01:38:00.556Z,100.00
2022-12-27T01:40:29.884Z,100.00
2022-12-27T01:42:57.226Z,100.00
2022-12-27T01:45:26.690Z,100.00
2022-12-27T01:48:00.789Z,100.00
2022-12-27T01:50:33.648Z,100.00
2022-12-27T01:53:09.824Z,100.00
2022-12-27T01:55:45.340Z,100.00
2022-12-27T01:58:18.823Z,100.00
2022-12-27T02:00:49.165Z,100.00
2022-12-27T02:03:21.583Z,100.00
2022-12-27T02:05:50.869Z,100.00
2022-12-27T02:08:31.823Z,100.00
2022-12-27T02:11:01.899Z,100.00
2022-12-27T02:13:33.019Z,100.00
2022-12-27T02:16:01.394Z,100.00
2022-12-27T02:18:29.427Z,100.00
2022-12-27T02:21:26.946Z,100.00
2022-12-27T02:24:26.807Z,100.00
2022-12-27T02:27:02.764Z,100.00
2022-12-27T02:29:51.663Z,100.00
2022-12-27T02:32:25.594Z,100.00
2022-12-27T02:35:05.173Z,100.00
2022-12-27T02:37:37.652Z,100.00
2022-12-27T02:40:26.924Z,100.00
2022-12-27T02:43:13.024Z,100.00
2022-12-27T02:46:05.230Z,100.00
2022-12-27T02:48:50.799Z,100.00
2022-12-27T02:51:56.056Z,100.00
2022-12-27T02:54:56.201Z,100.00
2022-12-27T02:57:34.230Z,100.00
2022-12-27T03:00:28.034Z,100.00
2022-12-27T03:03:24.974Z,100.00
2022-12-27T03:06:31.501Z,100.00
2022-12-27T03:09:08.706Z,100.00
2022-12-27T03:12:05.217Z,100.00
2022-12-27T03:14:57.227Z,100.00
2022-12-27T03:17:31.678Z,100.00
2022-12-27T03:20:22.563Z,100.00
2022-12-27T03:23:10.731Z,100.00
2022-12-27T03:25:41.158Z,100.00
2022-12-27T03:28:30.982Z,100.00
2022-12-27T03:31:27.069Z,100.00
2022-12-27T03:34:04.616Z,100.00
2022-12-27T03:36:52.842Z,100.00
2022-12-27T03:39:27.604Z,100.00
2022-12-27T03:42:13.785Z,100.00
2022-12-27T03:44:41.950Z,100.00
2022-12-27T03:47:18.261Z,100.00
2022-12-27T03:49:51.460Z,100.00
2022-12-27T03:52:26.491Z,100.00
2022-12-27T03:54:55.338Z,100.00
2022-12-27T03:57:26.237Z,100.00
2022-12-27T03:59:54.284Z,100.00
2022-12-27T04:02:22.447Z,100.00
2022-12-27T04:04:51.221Z,100.00
2022-12-27T04:07:20.610Z,100.00
2022-12-27T04:10:05.871Z,100.00
2022-12-27T04:12:51.444Z,100.00
2022-12-27T04:15:37.052Z,100.00
2022-12-27T04:18:23.136Z,100.00
2022-12-27T04:21:08.632Z,100.00
2022-12-27T04:23:55.328Z,100.00
2022-12-27T04:26:40.498Z,100.00
2022-12-27T04:29:27.091Z,100.00
2022-12-27T04:32:12.463Z,100.00
2022-12-27T04:34:46.452Z,100.00
2022-12-27T04:37:16.692Z,100.00
2022-12-27T04:40:09.897Z,100.00
2022-12-27T04:43:09.539Z,100.00
2022-12-27T04:45:55.151Z,100.00
2022-12-27T04:48:40.499Z,100.00
2022-12-27T04:51:27.830Z,100.00
2022-12-27T04:54:13.408Z,100.00
2022-12-27T04:56:42.711Z,100.00
2022-12-27T04:59:28.005Z,100.00
2022-12-27T05:02:05.099Z,100.00
2022-12-27T05:04:35.982Z,100.00
2022-12-27T05:07:24.839Z,100.00
2022-12-27T05:10:10.527Z,100.00
2022-12-27T05:12:57.473Z,100.00
2022-12-27T05:15:25.384Z,100.00
2022-12-27T05:17:53.338Z,100.00
2022-12-27T05:20:21.439Z,100.00
2022-12-27T05:23:15.279Z,100.00
2022-12-27T05:25:44.141Z,100.00
2022-12-27T05:28:14.164Z,100.00
2022-12-27T05:30:43.433Z,100.00
2022-12-27T05:33:11.652Z,100.00
2022-12-27T05:35:40.184Z,100.00
2022-12-27T05:38:08.171Z,100.00
2022-12-27T05:40:36.282Z,100.00
2022-12-27T05:43:05.506Z,100.00
2022-12-27T05:45:34.942Z,100.00
2022-12-27T05:48:02.886Z,100.00
2022-12-27T05:50:30.818Z,100.00
2022-12-27T05:52:58.760Z,100.00
2022-12-27T05:55:26.689Z,100.00
2022-12-27T05:57:54.623Z,100.00
2022-12-27T06:00:22.690Z,100.00
2022-12-27T06:02:52.121Z,100.00
2022-12-27T06:05:20.228Z,100.00
2022-12-27T06:07:48.177Z,100.00
2022-12-27T06:10:16.108Z,100.00
2022-12-27T06:12:44.027Z,100.00
2022-12-27T06:15:12.995Z,100.00
2022-12-27T06:17:41.081Z,100.00
2022-12-27T06:20:11.014Z,100.00
2022-12-27T06:22:38.976Z,100.00
2022-12-27T06:25:12.407Z,100.00
2022-12-27T06:27:42.205Z,100.00
2022-12-27T06:30:12.346Z,100.00
2022-12-27T06:32:40.306Z,100.00
2022-12-27T06:35:11.328Z,100.00
2022-12-27T06:37:39.355Z,100.00
2022-12-27T06:40:08.573Z,100.00
2022-12-27T06:42:36.505Z,100.00
2022-12-27T06:45:06.028Z,100.00
2022-12-27T06:47:34.157Z,100.00
2022-12-27T06:50:02.091Z,100.00
2022-12-27T06:52:31.409Z,100.00
2022-12-27T06:54:59.358Z,100.00
2022-12-27T06:57:27.278Z,100.00
2022-12-27T06:59:55.191Z,100.00
2022-12-27T07:02:23.278Z,100.00
2022-12-27T07:04:51.247Z,100.00
2022-12-27T07:07:19.168Z,100.00
2022-12-27T07:09:48.471Z,100.00
2022-12-27T07:12:16.402Z,100.00
2022-12-27T07:14:44.327Z,100.00
2022-12-27T07:17:12.322Z,100.00
2022-12-27T07:19:40.322Z,100.00
2022-12-27T07:22:08.246Z,100.00
2022-12-27T07:24:36.201Z,100.00
2022-12-27T07:27:05.658Z,100.00
2022-12-27T07:29:33.650Z,100.00
2022-12-27T07:32:01.649Z,100.00
2022-12-27T07:34:29.725Z,100.00
2022-12-27T07:36:57.643Z,100.00
2022-12-27T07:39:25.615Z,100.00
2022-12-27T07:41:53.519Z,100.00
2022-12-27T07:44:22.804Z,100.00
2022-12-27T07:46:51.259Z,100.00
2022-12-27T07:49:19.479Z,100.00
2022-12-27T07:51:47.523Z,100.00
2022-12-27T07:54:15.710Z,100.00
2022-12-27T07:56:43.710Z,100.00
2022-12-27T07:59:13.845Z,100.00
2022-12-27T08:01:57.181Z,100.00
2022-12-27T08:04:25.288Z,100.00
2022-12-27T08:06:53.440Z,100.00
2022-12-27T08:09:29.424Z,100.00
2022-12-27T08:11:57.391Z,100.00
2022-12-27T08:14:25.784Z,100.00
2022-12-27T08:16:55.275Z,100.00
2022-12-27T08:19:23.223Z,100.00
2022-12-27T08:21:51.139Z,100.00
2022-12-27T08:24:19.065Z,100.00
2022-12-27T08:26:47.004Z,100.00
2022-12-27T08:29:14.932Z,100.00
2022-12-27T08:31:42.916Z,100.00
2022-12-27T08:34:12.239Z,100.00
2022-12-27T08:36:56.420Z,100.00
2022-12-27T08:39:24.704Z,100.00
2022-12-27T08:41:54.153Z,100.00
2022-12-27T08:44:22.207Z,100.00
2022-12-27T08:46:50.350Z,100.00
2022-12-27T08:49:19.757Z,100.00
2022-12-27T08:51:47.693Z,100.00
2022-12-27T08:54:15.645Z,100.00
2022-12-27T08:56:43.574Z,100.00
2022-12-27T08:59:11.491Z,100.00
2022-12-27T09:01:39.591Z,100.00
2022-12-27T09:04:07.980Z,100.00
2022-12-27T09:06:37.303Z,98.85
2022-12-27T09:09:05.407Z,98.72
2022-12-27T09:11:35.171Z,95.55
2022-12-27T09:14:05.174Z,96.78
2022-12-27T09:16:34.313Z,98.35
2022-12-27T09:19:02.928Z,96.62
2022-12-27T09:21:32.756Z,97.96
2022-12-27T09:24:02.249Z,95.64
2022-12-27T09:26:31.867Z,96.04
2022-12-27T09:29:00.304Z,96.92
2022-12-27T09:31:29.211Z,94.60
2022-12-27T09:33:57.969Z,93.35
2022-12-27T09:36:27.658Z,95.50
2022-12-27T09:38:57.401Z,88.27
2022-12-27T09:44:35.119Z,91.94
2022-12-27T09:47:10.003Z,92.14
2022-12-27T09:49:41.028Z,94.18
2022-12-27T09:52:14.586Z,96.46
2022-12-27T09:55:00.920Z,91.58
2022-12-27T09:57:37.247Z,94.23
2022-12-27T10:00:13.307Z,88.35
2022-12-27T10:02:41.653Z,87.62
2022-12-27T10:05:21.290Z,84.31
2022-12-27T10:08:00.775Z,85.54
2022-12-27T10:10:40.073Z,83.48
2022-12-27T10:13:23.732Z,87.07
2022-12-27T10:15:58.454Z,86.57
2022-12-27T10:18:42.117Z,85.55
2022-12-27T10:21:23.334Z,84.75
2022-12-27T10:23:56.345Z,89.53
2022-12-27T10:26:24.762Z,91.24
2022-12-27T10:28:57.631Z,89.00
2022-12-27T10:31:26.776Z,89.11
2022-12-27T10:33:55.686Z,84.48
2022-12-27T10:36:26.372Z,84.92
2022-12-27T10:38:54.557Z,86.89
2022-12-27T10:41:33.685Z,87.22
2022-12-27T10:44:03.151Z,89.48
2022-12-27T10:46:34.013Z,88.95
2022-12-27T10:49:22.010Z,90.49
2022-12-27T10:51:52.396Z,90.50
2022-12-27T10:54:23.918Z,88.20
2022-12-27T10:56:52.148Z,91.79
2022-12-27T10:59:23.449Z,92.39
2022-12-27T11:02:16.487Z,90.50
2022-12-27T11:04:58.439Z,93.04
2022-12-27T11:07:31.432Z,93.86
2022-12-27T11:10:08.999Z,93.03
2022-12-27T11:12:36.929Z,95.83
2022-12-27T11:15:18.737Z,96.98
2022-12-27T11:17:48.648Z,97.07
2022-12-27T11:20:26.000Z,98.53
2022-12-27T11:22:57.235Z,98.22
2022-12-27T11:25:27.212Z,98.55
2022-12-27T11:27:59.106Z,96.01
2022-12-27T11:30:31.416Z,95.98
2022-12-27T11:33:04.997Z,97.90
2022-12-27T11:35:37.499Z,98.94
2022-12-27T11:38:05.561Z,95.95
2022-12-27T11:40:35.888Z,97.98
2022-12-27T11:43:09.303Z,97.69
2022-12-27T11:45:42.196Z,97.61
2022-12-27T11:48:22.202Z,97.53
2022-12-27T11:51:20.523Z,96.10
2022-12-27T11:54:07.248Z,97.95
2022-12-27T11:56:36.718Z,96.93
2022-12-27T11:59:33.419Z,97.98
2022-12-27T12:02:32.137Z,98.09
2022-12-27T12:05:39.136Z,99.96
2022-12-27T12:08:37.951Z,100.00
2022-12-27T12:11:16.258Z,100.00
2022-12-27T12:14:16.820Z,100.00
2022-12-27T12:17:01.508Z,100.00
2022-12-27T12:19:46.690Z,100.00
2022-12-27T12:22:34.932Z,100.00
2022-12-27T12:25:31.107Z,100.00
2022-12-27T12:28:56.888Z,100.00
2022-12-27T12:31:34.219Z,100.00
2022-12-27T12:34:18.786Z,100.00
2022-12-27T12:37:11.554Z,100.00
2022-12-27T12:39:56.124Z,100.00
2022-12-27T12:42:38.397Z,100.00
2022-12-27T12:45:26.051Z,100.00
2022-12-27T12:48:22.752Z,100.00
2022-12-27T12:51:18.492Z,100.00
2022-12-27T12:54:03.475Z,100.00
2022-12-27T12:56:48.780Z,100.00
2022-12-27T12:59:39.133Z,100.00
2022-12-27T13:02:35.061Z,100.00
2022-12-27T13:05:13.749Z,100.00
2022-12-27T13:08:00.742Z,100.00
2022-12-27T13:10:51.310Z,100.00
2022-12-27T13:13:27.403Z,100.00
2022-12-27T13:16:02.706Z,100.00
2022-12-27T13:18:41.529Z,100.00
2022-12-27T13:21:20.600Z,100.00
2022-12-27T13:24:00.804Z,100.00
2022-12-27T13:26:41.855Z,100.00
2022-12-27T13:29:37.299Z,100.00
2022-12-27T13:32:15.254Z,100.00
2022-12-27T13:34:55.192Z,100.00
2022-12-27T13:37:37.712Z,100.00
2022-12-27T13:40:25.165Z,100.00
2022-12-27T13:43:16.006Z,100.00
2022-12-27T13:46:00.526Z,100.00
2022-12-27T13:48:56.616Z,100.00
2022-12-27T13:51:42.332Z,100.00
2022-12-27T13:54:39.653Z,100.00
2022-12-27T13:57:23.050Z,100.00
2022-12-27T14:00:04.362Z,100.00
2022-12-27T14:03:13.895Z,100.00
2022-12-27T14:06:35.241Z,100.00
2022-12-27T14:09:25.087Z,100.00
2022-12-27T14:12:05.785Z,100.00
2022-12-27T14:14:37.760Z,100.00
2022-12-27T14:17:21.859Z,100.00
2022-12-27T14:20:19.568Z,100.00
2022-12-27T14:23:01.390Z,100.00
2022-12-27T14:26:17.033Z,100.00
2022-12-27T14:29:23.843Z,100.00
2022-12-27T14:32:38.149Z,100.00
2022-12-27T14:35:42.863Z,100.00
2022-12-27T14:38:58.150Z,100.00
2022-12-27T14:41:52.597Z,100.00
2022-12-27T14:45:02.374Z,100.00
2022-12-27T14:47:52.832Z,100.00
2022-12-27T14:50:49.557Z,100.00
2022-12-27T14:53:54.439Z,100.00
2022-12-27T14:56:33.528Z,100.00
2022-12-27T14:59:19.167Z,100.00
2022-12-27T15:01:58.278Z,100.00
2022-12-27T15:05:07.339Z,100.00
2022-12-27T15:07:58.353Z,100.00
2022-12-27T15:10:46.366Z,100.00
2022-12-27T15:13:16.719Z,100.00
2022-12-27T15:15:54.545Z,100.00
2022-12-27T15:18:41.640Z,100.00
2022-12-27T15:21:25.167Z,100.00
2022-12-27T15:23:56.125Z,100.00
2022-12-27T15:26:33.655Z,100.00
2022-12-27T15:29:17.813Z,100.00
2022-12-27T15:31:57.206Z,100.00
2022-12-27T15:34:42.294Z,100.00
2022-12-27T15:37:43.662Z,100.00
2022-12-27T15:40:30.011Z,100.00
2022-12-27T15:43:02.445Z,100.00
2022-12-27T15:45:45.158Z,100.00
2022-12-27T15:48:59.557Z,100.00
2022-12-27T15:51:36.530Z,100.00
2022-12-27T15:54:26.384Z,100.00
2022-12-27T15:57:19.210Z,100.00
2022-12-27T15:59:51.783Z,100.00
2022-12-27T16:02:26.806Z,100.00
2022-12-27T16:04:57.163Z,100.00
2022-12-27T16:08:16.230Z,100.00
2022-12-27T16:10:51.379Z,100.00
2022-12-27T16:13:27.680Z,100.00
2022-12-27T16:15:57.043Z,100.00
2022-12-27T16:19:00.032Z,100.00
2022-12-27T16:21:37.587Z,100.00
2022-12-27T16:24:11.716Z,100.00
2022-12-27T16:26:47.737Z,100.00
2022-12-27T16:29:17.938Z,100.00
2022-12-27T16:31:49.292Z,100.00
2022-12-27T16:34:23.989Z,100.00
2022-12-27T16:36:54.863Z,100.00
2022-12-27T16:39:42.183Z,100.00
2022-12-27T16:42:10.391Z,100.00
2022-12-27T16:44:54.130Z,100.00
2022-12-27T16:47:44.115Z,100.00
2022-12-27T16:50:54.737Z,100.00
2022-12-27T16:53:46.212Z,100.00
2022-12-27T16:56:22.171Z,100.00
2022-12-27T16:58:50.834Z,100.00
2022-12-27T17:02:01.870Z,100.00
2022-12-27T17:04:53.788Z,100.00
2022-12-27T17:07:43.948Z,100.00
2022-12-27T17:10:35.435Z,100.00
2022-12-27T17:13:11.888Z,100.00
2022-12-27T17:15:49.800Z,100.00
2022-12-27T17:18:27.713Z,100.00
2022-12-27T17:21:04.803Z,100.00
2022-12-27T17:23:38.682Z,100.00
2022-12-27T17:26:51.102Z,100.00
2022-12-27T17:29:47.027Z,100.00
2022-12-27T17:32:30.617Z,100.00
2022-12-27T17:35:08.265Z,100.00
2022-12-27T17:37:44.040Z,100.00
2022-12-27T17:40:26.974Z,100.00
2022-12-27T17:43:22.553Z,100.00
2022-12-27T17:45:56.833Z,100.00
2022-12-27T17:48:29.199Z,100.00
2022-12-27T17:51:02.496Z,100.00
2022-12-27T17:53:49.511Z,100.00
2022-12-27T17:56:40.124Z,100.00
2022-12-27T17:59:11.377Z,100.00
2022-12-27T18:01:45.657Z,100.00
2022-12-27T18:04:23.153Z,100.00
2022-12-27T18:06:55.691Z,100.00
2022-12-27T18:09:38.321Z,100.00
2022-12-27T18:12:13.328Z,100.00
2022-12-27T18:14:41.958Z,100.00
2022-12-27T18:17:28.461Z,100.00
2022-12-27T18:19:57.164Z,100.00
2022-12-27T18:22:30.330Z,100.00
2022-12-27T18:25:01.156Z,100.00
2022-12-27T18:27:29.091Z,100.00
2022-12-27T18:29:57.044Z,100.00
2022-12-27T18:32:26.643Z,100.00
2022-12-27T18:34:58.892Z,100.00
2022-12-27T18:37:28.251Z,100.00
2022-12-27T18:40:00.287Z,100.00
2022-12-27T18:42:34.471Z,100.00
2022-12-27T18:45:05.557Z,100.00
2022-12-27T18:47:39.585Z,100.00
2022-12-27T18:50:18.327Z,100.00
2022-12-27T18:52:51.291Z,100.00
2022-12-27T18:55:26.954Z,100.00
2022-12-27T18:58:05.025Z,100.00
2022-12-27T19:00:33.257Z,100.00
2022-12-27T19:03:14.941Z,100.00
2022-12-27T19:05:59.589Z,100.00
2022-12-27T19:08:31.194Z,100.00
2022-12-27T19:10:59.212Z,100.00
2022-12-27T19:13:30.596Z,100.00
2022-12-27T19:15:59.997Z,100.00
2022-12-27T19:18:32.103Z,100.00
2022-12-27T19:21:01.764Z,100.00
2022-12-27T19:23:32.951Z,100.00
2022-12-27T19:26:08.944Z,100.00
2022-12-27T19:28:38.405Z,100.00
2022-12-27T19:31:17.628Z,100.00
2022-12-27T19:33:49.326Z,100.00
2022-12-27T19:36:18.116Z,100.00
2022-12-27T19:38:48.171Z,100.00
2022-12-27T19:41:16.365Z,100.00
2022-12-27T19:43:47.666Z,100.00
2022-12-27T19:46:19.137Z,100.00
2022-12-27T19:49:07.668Z,100.00
2022-12-27T19:51:36.364Z,100.00
2022-12-27T19:54:06.896Z,100.00
2022-12-27T19:56:34.960Z,100.00
2022-12-27T19:59:04.354Z,100.00
2022-12-27T20:01:32.451Z,100.00
2022-12-27T20:04:00.482Z,100.00
2022-12-27T20:06:29.446Z,100.00
2022-12-27T20:08:58.210Z,100.00
2022-12-27T20:11:27.783Z,100.00
2022-12-27T20:13:55.960Z,100.00
2022-12-27T20:16:25.428Z,100.00
2022-12-27T20:18:53.534Z,100.00
2022-12-27T20:21:22.043Z,100.00
2022-12-27T20:23:50.530Z,100.00
2022-12-27T20:26:20.786Z,100.00
2022-12-27T20:28:49.791Z,100.00
2022-12-27T20:31:20.521Z,100.00
2022-12-27T20:33:54.374Z,100.00
2022-12-27T20:36:22.464Z,100.00
2022-12-27T20:38:50.541Z,100.00
2022-12-27T20:41:20.653Z,100.00
2022-12-27T20:43:48.620Z,100.00
2022-12-27T20:46:18.190Z,100.00
2022-12-27T20:48:47.647Z,100.00
2022-12-27T20:51:19.033Z,100.00
2022-12-27T20:53:49.174Z,100.00
2022-12-27T20:56:17.556Z,100.00
2022-12-27T20:58:45.499Z,100.00
2022-12-27T21:01:15.799Z,100.00
2022-12-27T21:03:44.750Z,100.00
2022-12-27T21:06:14.475Z,100.00
2022-12-27T21:08:48.985Z,100.00
2022-12-27T21:11:24.112Z,100.00
2022-12-27T21:13:52.102Z,100.00
2022-12-27T21:16:22.087Z,100.00
2022-12-27T21:18:51.061Z,100.00
2022-12-27T21:21:21.020Z,100.00
2022-12-27T21:23:50.958Z,100.00
2022-12-27T21:26:21.001Z,100.00
2022-12-27T21:28:49.795Z,100.00
2022-12-27T21:31:19.254Z,100.00
2022-12-27T21:33:47.512Z,100.00
2022-12-27T21:36:17.900Z,100.00
2022-12-27T21:38:46.086Z,100.00
2022-12-27T21:41:17.532Z,100.00
2022-12-27T21:43:47.240Z,100.00
2022-12-27T21:46:16.955Z,100.00
2022-12-27T21:48:45.072Z,100.00
2022-12-27T21:51:15.288Z,100.00
2022-12-27T21:53:44.376Z,100.00
2022-12-27T21:56:12.930Z,100.00
2022-12-27T21:58:43.351Z,100.00
2022-12-27T22:01:14.209Z,100.00
2022-12-27T22:03:44.005Z,100.00
2022-12-27T22:06:13.086Z,100.00
2022-12-27T22:08:41.118Z,100.00
2022-12-27T22:11:10.093Z,100.00
2022-12-27T22:13:38.436Z,100.00
2022-12-27T22:16:11.260Z,100.00
2022-12-27T22:18:41.532Z,100.00
2022-12-27T22:21:10.900Z,100.00
2022-12-27T22:23:40.799Z,100.00
2022-12-27T22:26:12.388Z,100.00
2022-12-27T22:28:40.704Z,100.00
2022-12-27T22:31:12.371Z,100.00
2022-12-27T22:33:40.451Z,100.00
2022-12-27T22:36:11.947Z,100.00
2022-12-27T22:38:40.721Z,100.00
2022-12-27T22:41:11.671Z,100.00
2022-12-27T22:43:39.925Z,100.00
2022-12-27T22:46:10.684Z,100.00
2022-12-27T22:48:38.815Z,100.00
2022-12-27T22:51:08.963Z,100.00
2022-12-27T22:53:37.270Z,100.00
2022-12-27T22:56:05.542Z,100.00
2022-12-27T22:58:33.930Z,100.00
2022-12-27T23:01:01.909Z,100.00
2022-12-27T23:03:31.249Z,100.00
2022-12-27T23:06:00.195Z,100.00
2022-12-27T23:08:28.232Z,100.00
2022-12-27T23:11:02.008Z,100.00
2022-12-27T23:13:29.995Z,100.00
2022-12-27T23:15:58.936Z,100.00
2022-12-27T23:18:28.049Z,100.00
2022-12-27T23:21:22.775Z,100.00
2022-12-27T23:23:45.651Z,100.00
2022-12-27T23:26:16.652Z,100.00
2022-12-27T23:28:46.951Z,100.00
2022-12-27T23:31:15.422Z,100.00
2022-12-27T23:33:44.499Z,100.00
2022-12-27T23:36:14.989Z,100.00
2022-12-27T23:38:43.781Z,100.00
2022-12-27T23:41:15.930Z,100.00
2022-12-27T23:43:53.279Z,100.00
2022-12-27T23:46:23.791Z,100.00
2022-12-27T23:48:52.699Z,100.00
2022-12-27T23:51:22.869Z,100.00
2022-12-27T23:53:50.901Z,100.00
2022-12-27T23:56:22.157Z,100.00
2022-12-27T23:58:51.209Z,100.00
